Time;durP1;ratioP1;P1;durP2;ratioP2;P2;SDS_P1;SDS_P2;PMS_P1;PMS_P2;Temp;Humidity;BMP_temperature;BMP_pressure;BME280_temperature;BME280_humidity;BME280_pressure;Samples;Min_cycle;Max_cycle;Signal;HPM_P1;HPM_P2
2023/03/19 00:02:22;;;;;;;4.80;3.83;;;;;;;11.28;75.82;154256.91;5037401;28;20435;-78
2023/03/19 00:04:49;;;;;;;5.97;3.50;;;;;;;11.29;76.16;154259.53;5056739;28;20539;-78
2023/03/19 00:07:16;;;;;;;3.70;3.40;;;;;;;11.31;77.01;154263.38;5060284;28;20829;-79
2023/03/19 00:09:42;;;;;;;4.03;3.50;;;;;;;11.32;78.01;154266.00;5047879;28;20521;-78
2023/03/19 00:12:10;;;;;;;4.83;3.77;;;;;;;11.32;76.37;154267.31;5059303;28;20962;-78
2023/03/19 00:14:38;;;;;;;4.50;3.20;;;;;;;11.32;75.65;154266.00;5054805;28;20960;-78
2023/03/19 00:17:05;;;;;;;3.63;2.90;;;;;;;11.31;75.23;154263.38;5029600;28;20455;-78
2023/03/19 00:19:33;;;;;;;4.37;3.10;;;;;;;11.37;77.81;154278.94;5033328;28;20455;-78
2023/03/19 00:22:00;;;;;;;5.97;3.70;;;;;;;11.37;76.66;154278.94;5043036;28;20492;-78
2023/03/19 00:24:27;;;;;;;3.67;3.23;;;;;;;11.33;75.71;154269.84;5060432;28;20485;-78
2023/03/19 00:26:54;;;;;;;5.50;3.33;;;;;;;11.33;74.46;154269.84;5052404;28;20491;-78
2023/03/19 00:29:22;;;;;;;3.37;3.07;;;;;;;11.36;76.31;154276.34;5018567;28;20926;-78
2023/03/19 00:31:49;;;;;;;4.80;2.60;;;;;;;11.33;75.76;154269.84;5027754;28;20455;-78
2023/03/19 00:34:17;;;;;;;5.40;3.20;;;;;;;11.32;75.62;154266.00;5050260;28;20444;-78
2023/03/19 00:36:45;;;;;;;3.40;2.80;;;;;;;11.32;76.84;154266.00;5040680;28;20448;-78
2023/03/19 00:39:12;;;;;;;4.20;3.80;;;;;;;11.30;76.18;154262.13;5037039;28;20455;-79
2023/03/19 00:41:39;;;;;;;4.20;3.80;;;;;;;11.30;76.14;154262.13;5014329;28;20440;-78
2023/03/19 00:44:06;;;;;;;4.13;3.33;;;;;;;11.27;75.79;154253.03;5044726;28;20969;-78
2023/03/19 00:46:33;;;;;;;3.90;2.93;;;;;;;11.27;75.13;154254.34;5038689;28;20456;-78
2023/03/19 00:49:00;;;;;;;4.50;3.50;;;;;;;11.26;75.06;154251.75;5061362;28;20849;-78
2023/03/19 00:51:26;;;;;;;3.67;2.87;;;;;;;11.24;74.65;154245.25;5053257;28;20481;-77
2023/03/19 00:53:56;;;;;;;3.60;2.50;;;;;;;11.21;75.31;154238.78;5024549;28;20482;-77
2023/03/19 00:56:23;;;;;;;3.30;3.00;;;;;;;11.19;74.68;154233.63;5037803;28;20451;-77
2023/03/19 00:58:49;;;;;;;4.33;3.63;;;;;;;11.18;74.07;154231.00;5044652;28;20543;-77
2023/03/19 01:01:18;;;;;;;6.53;3.70;;;;;;;11.21;77.97;154237.47;5050340;28;20959;-77
2023/03/19 01:03:46;;;;;;;3.70;3.40;;;;;;;11.16;76.55;154224.53;5036132;28;20464;-77
2023/03/19 01:06:13;;;;;;;4.60;3.40;;;;;;;11.17;77.81;154227.16;5058553;28;20445;-77
2023/03/19 01:08:40;;;;;;;4.23;3.17;;;;;;;11.18;80.14;154229.72;5061928;28;20523;-79
2023/03/19 01:11:11;;;;;;;4.67;3.43;;;;;;;11.14;76.73;154219.38;5021115;28;20451;-79
2023/03/19 01:13:38;;;;;;;5.70;3.67;;;;;;;11.19;81.38;154233.63;5023105;28;20486;-79
2023/03/19 01:16:05;;;;;;;5.50;3.80;;;;;;;11.13;78.04;154216.75;5036640;28;20719;-79
2023/03/19 01:18:32;;;;;;;3.93;3.07;;;;;;;11.14;80.03;154219.38;5056540;28;20451;-79
2023/03/19 01:20:59;;;;;;;4.50;3.20;;;;;;;11.14;78.97;154219.38;5064449;28;20468;-79
2023/03/19 01:23:28;;;;;;;4.20;2.60;;;;;;;11.15;80.10;154221.94;5055624;28;20536;-79
2023/03/19 01:25:55;;;;;;;7.00;3.10;;;;;;;11.13;78.20;154218.06;5056192;28;20554;-79
2023/03/19 01:28:24;;;;;;;2.77;2.20;;;;;;;11.18;77.95;154229.72;5050934;28;20435;-77
2023/03/19 01:30:51;;;;;;;3.40;3.00;;;;;;;11.23;81.88;154242.66;5031951;28;20584;-77
2023/03/19 01:33:37;;;;;;;4.70;3.70;;;;;;;11.24;81.47;154246.56;5051798;28;20919;-78
2023/03/19 01:36:11;;;;;;;6.70;3.80;;;;;;;11.26;80.84;154250.44;5029888;28;20422;-77
2023/03/19 01:38:55;;;;;;;5.63;3.90;;;;;;;11.27;79.51;154253.03;5041797;28;20470;-77
2023/03/19 01:41:23;;;;;;;5.90;3.43;;;;;;;11.27;78.81;154253.03;5036632;28;20450;-77
2023/03/19 01:43:53;;;;;;;3.97;3.40;;;;;;;11.29;80.46;154258.22;5023307;28;21015;-79
2023/03/19 01:46:49;;;;;;;4.20;3.37;;;;;;;11.28;81.28;154256.91;5047497;28;20466;-79
2023/03/19 01:49:26;;;;;;;4.00;2.90;;;;;;;11.25;80.71;154249.13;5052311;28;20446;-79
2023/03/19 01:52:08;;;;;;;3.97;3.57;;;;;;;11.25;81.59;154247.88;5040570;28;20451;-79
2023/03/19 01:54:51;;;;;;;4.30;3.90;;;;;;;11.24;82.62;154245.25;5036032;28;20459;-79
2023/03/19 01:57:53;;;;;;;4.87;3.73;;;;;;;11.19;79.14;154233.63;5007132;28;20978;-79
2023/03/19 02:00:41;;;;;;;4.20;3.40;;;;;;;11.23;81.87;154242.66;5040991;28;20472;-79
2023/03/19 02:03:09;;;;;;;4.00;3.60;;;;;;;11.26;81.46;154250.44;5052093;28;20434;-79
2023/03/19 02:05:53;;;;;;;3.60;3.30;;;;;;;11.25;79.61;154249.13;5042370;28;20473;-79
2023/03/19 02:08:22;;;;;;;5.00;3.60;;;;;;;11.28;79.62;154255.66;5038049;28;20466;-80
2023/03/19 02:10:50;;;;;;;4.73;3.30;;;;;;;11.30;79.55;154260.81;5041943;28;20801;-79
2023/03/19 02:13:17;;;;;;;8.20;3.40;;;;;;;11.31;80.24;154263.38;5065323;28;20435;-78
2023/03/19 02:15:45;;;;;;;3.43;3.03;;;;;;;11.31;80.23;154263.38;5053319;28;20475;-80
2023/03/19 02:18:13;;;;;;;4.37;3.83;;;;;;;11.31;81.97;154263.38;5032037;28;20486;-79
2023/03/19 02:20:45;;;;;;;5.10;4.17;;;;;;;11.30;82.22;154260.81;5023729;28;20458;-79
2023/03/19 02:23:17;;;;;;;4.83;4.30;;;;;;;11.30;84.38;154260.81;5051325;28;20455;-79
2023/03/19 02:25:59;;;;;;;5.10;4.43;;;;;;;11.29;86.58;154259.53;5042751;28;20466;-79
2023/03/19 02:28:26;;;;;;;5.80;4.17;;;;;;;11.25;89.14;154249.13;5034533;28;21067;-79
2023/03/19 02:30:53;;;;;;;4.90;4.40;;;;;;;11.26;91.74;154250.44;5031571;28;20515;-79
2023/03/19 02:33:20;;;;;;;5.47;3.97;;;;;;;11.27;93.10;154254.34;5041844;28;20486;-79
2023/03/19 02:35:49;;;;;;;4.80;4.40;;;;;;;11.26;94.88;154250.44;5058637;28;20458;-79
2023/03/19 02:38:20;;;;;;;5.73;4.30;;;;;;;11.25;97.73;154249.13;5038806;28;20443;-79
2023/03/19 02:40:50;;;;;;;5.10;4.43;;;;;;;11.21;98.10;154237.47;5069995;28;20837;-78
2023/03/19 02:43:20;;;;;;;4.93;4.10;;;;;;;11.17;97.94;154227.16;5054598;28;20442;-78
2023/03/19 02:45:47;;;;;;;4.70;4.20;;;;;;;11.15;97.90;154221.94;5038871;28;20506;-78
2023/03/19 02:48:14;;;;;;;5.17;3.70;;;;;;;11.14;98.81;154219.38;5018716;28;20455;-78
2023/03/19 02:50:40;;;;;;;4.70;4.30;;;;;;;11.15;98.86;154221.94;5055465;28;20500;-79
2023/03/19 02:53:08;;;;;;;4.97;4.47;;;;;;;11.13;98.87;154216.75;5052384;28;20459;-79
2023/03/19 02:55:35;;;;;;;4.90;4.20;;;;;;;11.16;99.31;154224.53;5057321;28;20877;-79
2023/03/19 02:58:02;;;;;;;4.70;4.17;;;;;;;11.16;100.00;154224.53;5044812;28;20439;-79
2023/03/19 03:00:30;;;;;;;5.20;4.70;;;;;;;11.12;100.00;154215.44;5018938;28;20470;-78
2023/03/19 03:02:58;;;;;;;5.33;4.77;;;;;;;11.04;100.00;154193.47;5064003;28;20438;-79
2023/03/19 03:05:25;;;;;;;5.10;4.30;;;;;;;11.00;100.00;154185.69;5051811;28;20552;-79
2023/03/19 03:07:52;;;;;;;6.10;4.40;;;;;;;10.99;100.00;154183.09;5057692;28;20445;-79
2023/03/19 03:10:19;;;;;;;4.60;4.20;;;;;;;10.95;100.00;154171.44;5052639;28;20484;-79
2023/03/19 03:12:46;;;;;;;4.17;3.77;;;;;;;10.93;100.00;154167.53;5049206;28;21558;-78
2023/03/19 03:15:13;;;;;;;5.13;4.63;;;;;;;11.00;100.00;154184.38;5061054;28;20817;-78
2023/03/19 03:17:43;;;;;;;5.30;4.80;;;;;;;10.96;100.00;154175.31;5012957;28;20436;-78
2023/03/19 03:20:12;;;;;;;5.07;4.57;;;;;;;10.92;100.00;154164.97;5057235;28;20531;-78
2023/03/19 03:22:40;;;;;;;4.73;4.23;;;;;;;10.90;100.00;154158.50;5054315;28;20451;-79
2023/03/19 03:25:08;;;;;;;6.37;4.27;;;;;;;10.86;100.00;154148.09;5035097;28;20558;-78
2023/03/19 03:27:35;;;;;;;5.63;4.57;;;;;;;10.85;100.00;154146.84;5037360;28;20440;-78
2023/03/19 03:30:02;;;;;;;5.60;5.10;;;;;;;10.82;100.00;154139.06;5041158;28;20545;-79
2023/03/19 03:32:29;;;;;;;5.30;4.27;;;;;;;10.76;100.00;154122.22;5046699;28;20454;-79
2023/03/19 03:34:57;;;;;;;5.47;5.07;;;;;;;10.72;100.00;154113.13;5017280;28;20563;-78
2023/03/19 03:37:24;;;;;;;5.77;5.17;;;;;;;10.67;100.00;154100.19;5047313;28;20973;-78
2023/03/19 03:39:52;;;;;;;4.57;4.13;;;;;;;10.64;100.00;154092.47;5058978;28;20544;-78
2023/03/19 03:42:18;;;;;;;5.80;5.20;;;;;;;10.64;100.00;154092.47;5063068;28;20447;-78
2023/03/19 03:44:45;;;;;;;6.77;5.07;;;;;;;10.64;100.00;154091.16;5053327;28;21003;-78
2023/03/19 03:47:13;;;;;;;5.73;5.13;;;;;;;10.61;100.00;154083.38;5022986;28;20439;-78
2023/03/19 03:49:40;;;;;;;5.57;4.97;;;;;;;10.60;100.00;154082.06;5027729;28;20454;-78
2023/03/19 03:52:09;;;;;;;5.67;4.90;;;;;;;10.57;100.00;154074.31;5056126;28;20420;-78
2023/03/19 03:54:36;;;;;;;7.40;5.93;;;;;;;10.53;100.00;154063.97;5032309;28;20512;-78
2023/03/19 03:57:02;;;;;;;5.53;5.03;;;;;;;10.48;100.00;154051.03;5059832;28;20442;-78
2023/03/19 03:59:29;;;;;;;5.23;4.83;;;;;;;10.47;100.00;154048.41;5048928;28;20823;-77
2023/03/19 04:01:56;;;;;;;5.43;4.90;;;;;;;10.46;100.00;154045.81;5030621;28;20462;-77
2023/03/19 04:04:23;;;;;;;5.90;5.13;;;;;;;10.44;100.00;154040.63;5030910;28;20487;-78
2023/03/19 04:06:50;;;;;;;6.60;4.97;;;;;;;10.46;100.00;154045.81;5047685;28;20558;-78
2023/03/19 04:09:41;;;;;;;5.13;4.50;;;;;;;10.43;100.00;154036.78;5028695;28;20993;-78
2023/03/19 04:12:08;;;;;;;5.57;4.97;;;;;;;10.44;100.00;154040.63;5040124;28;20438;-78
2023/03/19 04:14:35;;;;;;;8.43;5.50;;;;;;;10.42;100.00;154035.47;5070044;28;20493;-78
2023/03/19 04:17:02;;;;;;;6.30;5.67;;;;;;;10.43;100.00;154036.78;5021905;28;20444;-78
2023/03/19 04:19:30;;;;;;;6.80;4.77;;;;;;;10.44;100.00;154040.63;5013702;28;20455;-78
2023/03/19 04:21:57;;;;;;;5.20;4.47;;;;;;;10.43;100.00;154036.78;5069044;28;20451;-78
2023/03/19 04:24:25;;;;;;;5.63;4.90;;;;;;;10.40;100.00;154030.31;5049886;28;20439;-77
2023/03/19 04:26:53;;;;;;;5.77;4.43;;;;;;;10.38;100.00;154026.41;5038109;28;20474;-78
2023/03/19 04:29:21;;;;;;;5.37;4.50;;;;;;;10.37;100.00;154022.53;5043462;28;20499;-78
2023/03/19 04:31:48;;;;;;;5.40;4.90;;;;;;;10.36;100.00;154021.22;5030013;28;20806;-78
2023/03/19 04:34:14;;;;;;;5.60;5.07;;;;;;;10.32;100.00;154009.59;5056351;28;20447;-77
2023/03/19 04:36:41;;;;;;;4.67;4.27;;;;;;;10.35;100.00;154017.38;5044791;28;20478;-78
2023/03/19 04:39:08;;;;;;;5.10;4.60;;;;;;;10.33;100.00;154012.16;5048094;28;20449;-78
2023/03/19 04:41:36;;;;;;;7.13;4.50;;;;;;;10.34;100.00;154014.75;5052617;28;20524;-78
2023/03/19 04:44:23;;;;;;;5.10;4.40;;;;;;;10.31;100.00;154008.28;5058543;28;20813;-78
2023/03/19 04:46:50;;;;;;;7.00;5.43;;;;;;;10.32;100.00;154009.59;5039835;28;21011;-77
2023/03/19 04:49:19;;;;;;;6.70;4.60;;;;;;;10.31;100.00;154007.00;5031328;28;20443;-77
2023/03/19 04:51:46;;;;;;;5.83;5.10;;;;;;;10.28;100.00;154000.50;5054415;28;20913;-78
2023/03/19 04:54:13;;;;;;;6.83;4.80;;;;;;;10.25;100.00;153992.75;5041881;28;20456;-78
2023/03/19 04:56:40;;;;;;;5.53;5.00;;;;;;;10.24;100.00;153988.88;5057253;28;20483;-78
2023/03/19 04:59:09;;;;;;;5.57;5.07;;;;;;;10.25;100.00;153991.44;5030734;28;20451;-78
2023/03/19 05:01:37;;;;;;;6.53;5.83;;;;;;;10.21;100.00;153981.09;5043384;28;20811;-78
2023/03/19 05:04:07;;;;;;;6.60;5.90;;;;;;;10.20;100.00;153978.50;5038669;28;21004;-78
2023/03/19 05:06:36;;;;;;;5.30;4.80;;;;;;;10.19;100.00;153975.94;5058768;28;20517;-78
2023/03/19 05:09:03;;;;;;;5.40;4.90;;;;;;;10.14;100.00;153963.00;5017151;28;21645;-77
2023/03/19 05:11:32;;;;;;;6.33;5.73;;;;;;;10.15;100.00;153966.88;5015152;28;20453;-77
2023/03/19 05:14:05;;;;;;;6.83;5.27;;;;;;;10.13;100.00;153960.41;4976957;28;20454;-78
2023/03/19 05:16:53;;;;;;;6.43;4.67;;;;;;;10.08;100.00;153948.72;5029875;28;20586;-78
2023/03/19 05:19:20;;;;;;;5.90;5.30;;;;;;;10.09;100.00;153951.25;5032796;28;20480;-78
2023/03/19 05:21:46;;;;;;;5.10;4.60;;;;;;;10.09;100.00;153949.97;5023200;28;20433;-78
2023/03/19 05:24:17;;;;;;;6.20;4.97;;;;;;;10.07;100.00;153944.81;5008566;28;20457;-78
2023/03/19 05:26:45;;;;;;;7.73;5.80;;;;;;;10.10;100.00;153952.56;5011775;28;20626;-78
2023/03/19 05:29:36;;;;;;;5.77;5.17;;;;;;;10.07;100.00;153946.09;5014783;28;20478;-78
2023/03/19 05:32:20;;;;;;;6.47;5.10;;;;;;;10.07;100.00;153944.81;4993523;28;20453;-77
2023/03/19 05:34:47;;;;;;;5.70;5.20;;;;;;;10.05;100.00;153939.63;5036542;28;20915;-78
2023/03/19 05:37:14;;;;;;;6.03;5.43;;;;;;;10.03;100.00;153934.47;5025818;28;21320;-78
2023/03/19 05:39:42;;;;;;;5.97;5.33;;;;;;;10.02;100.00;153931.88;5019942;28;20457;-78
2023/03/19 05:42:11;;;;;;;6.57;5.53;;;;;;;10.01;100.00;153929.25;5011795;28;20451;-78
2023/03/19 05:44:38;;;;;;;5.47;4.83;;;;;;;10.02;100.00;153931.88;5006468;28;20456;-78
2023/03/19 05:47:17;;;;;;;6.27;5.43;;;;;;;9.99;100.00;153925.38;5010119;28;20891;-78
2023/03/19 05:49:50;;;;;;;5.77;5.20;;;;;;;9.97;100.00;153918.91;5020607;28;20453;-78
2023/03/19 05:52:17;;;;;;;7.90;7.10;;;;;;;9.92;100.00;153906.00;5014202;28;20508;-78
2023/03/19 05:54:48;;;;;;;6.50;5.87;;;;;;;9.91;100.00;153903.38;5009675;28;20494;-78
2023/03/19 05:57:23;;;;;;;7.00;5.53;;;;;;;9.89;100.00;153898.22;5012726;28;20795;-78
2023/03/19 05:59:56;;;;;;;6.43;5.83;;;;;;;9.88;100.00;153895.59;5014823;28;20453;-77
2023/03/19 06:02:41;;;;;;;6.37;5.67;;;;;;;9.85;100.00;153887.88;5029293;28;20835;-78
2023/03/19 06:05:28;;;;;;;6.53;5.20;;;;;;;9.89;100.00;153898.22;5007165;28;20469;-78
2023/03/19 06:07:59;;;;;;;7.07;6.33;;;;;;;9.86;100.00;153891.75;5015014;28;20453;-78
2023/03/19 06:10:52;;;;;;;5.73;5.23;;;;;;;9.91;100.00;153904.69;5011632;28;21098;-78
2023/03/19 06:13:19;;;;;;;5.40;4.80;;;;;;;9.90;100.00;153900.81;4996820;28;20506;-79
2023/03/19 06:16:12;;;;;;;5.37;4.87;;;;;;;9.90;100.00;153900.81;5006230;28;20465;-78
2023/03/19 06:18:46;;;;;;;5.90;5.30;;;;;;;9.95;100.00;153915.06;5005640;28;20819;-78
2023/03/19 06:21:16;;;;;;;6.67;5.03;;;;;;;9.95;100.00;153915.06;5012490;28;20452;-78
2023/03/19 06:23:43;;;;;;;5.90;5.30;;;;;;;9.94;100.00;153911.16;5015815;28;20484;-78
2023/03/19 06:26:13;;;;;;;5.63;5.10;;;;;;;9.92;100.00;153906.00;5014875;28;20484;-78
2023/03/19 06:28:46;;;;;;;6.10;5.50;;;;;;;9.95;100.00;153913.75;5015381;28;20469;-78
2023/03/19 06:31:14;;;;;;;5.77;5.27;;;;;;;9.90;100.00;153902.06;4998794;28;20825;-77
2023/03/19 06:34:04;;;;;;;4.63;4.23;;;;;;;9.86;100.00;153890.44;4995870;28;20457;-78
2023/03/19 06:36:40;;;;;;;4.77;4.27;;;;;;;9.92;100.00;153906.00;5012131;28;20441;-77
2023/03/19 06:39:10;;;;;;;5.80;4.90;;;;;;;9.93;100.00;153909.84;4997709;28;20457;-78
2023/03/19 06:41:37;;;;;;;6.67;5.80;;;;;;;9.96;100.00;153917.63;5010809;28;20537;-77
2023/03/19 06:44:29;;;;;;;5.60;5.00;;;;;;;9.96;100.00;153917.63;4999184;28;20511;-77
2023/03/19 06:46:56;;;;;;;5.70;4.70;;;;;;;9.99;100.00;153924.09;5012150;28;20473;-77
2023/03/19 06:49:23;;;;;;;5.40;4.90;;;;;;;10.03;100.00;153935.78;5007950;28;20485;-76
2023/03/19 06:51:51;;;;;;;5.83;5.23;;;;;;;10.04;100.00;153938.34;5015947;28;20464;-77
2023/03/19 06:54:18;;;;;;;8.77;5.40;;;;;;;10.08;100.00;153947.41;5012779;28;20453;-77
2023/03/19 06:56:46;;;;;;;7.87;6.00;;;;;;;10.10;100.00;153952.56;5011804;28;20458;-77
2023/03/19 06:59:13;;;;;;;6.17;5.53;;;;;;;10.11;100.00;153955.19;5010972;28;20852;-77
2023/03/19 07:01:40;;;;;;;7.13;6.47;;;;;;;10.09;100.00;153951.25;4997878;28;20957;-77
2023/03/19 07:04:07;;;;;;;5.63;4.87;;;;;;;10.07;100.00;153944.81;4998188;28;20458;-77
2023/03/19 07:06:34;;;;;;;6.03;5.37;;;;;;;10.14;100.00;153963.00;5000948;28;20488;-77
2023/03/19 07:09:03;;;;;;;5.70;5.10;;;;;;;10.17;100.00;153970.72;5012018;28;21146;-77
2023/03/19 07:11:29;;;;;;;8.63;5.03;;;;;;;10.18;100.00;153973.34;5038770;28;20939;-77
2023/03/19 07:13:56;;;;;;;7.00;5.60;;;;;;;10.20;100.00;153978.50;5029131;28;20443;-77
2023/03/19 07:16:23;;;;;;;5.30;4.80;;;;;;;10.21;100.00;153981.09;5036730;28;20440;-77
2023/03/19 07:18:49;;;;;;;5.30;4.80;;;;;;;10.25;100.00;153991.44;5039065;28;20483;-77
2023/03/19 07:21:16;;;;;;;5.97;5.37;;;;;;;10.33;100.00;154012.16;5039939;28;20494;-76
2023/03/19 07:23:45;;;;;;;5.57;5.07;;;;;;;10.30;100.00;154004.38;5040540;28;20550;-79
2023/03/19 07:26:13;;;;;;;6.87;4.97;;;;;;;10.36;100.00;154019.94;5037555;28;20974;-79
2023/03/19 07:28:40;;;;;;;5.07;4.57;;;;;;;10.38;100.00;154026.41;5038755;28;20452;-89
2023/03/19 07:31:07;;;;;;;5.50;4.70;;;;;;;10.37;100.00;154022.53;5010899;28;20474;-90
2023/03/19 07:33:34;;;;;;;6.77;5.10;;;;;;;10.36;100.00;154019.94;5030634;28;20474;-89
2023/03/19 07:36:00;;;;;;;6.20;5.20;;;;;;;10.37;100.00;154022.53;5037676;28;20957;-89
2023/03/19 07:38:27;;;;;;;7.37;5.20;;;;;;;10.42;100.00;154035.47;5038571;28;20487;-88
2023/03/19 07:40:54;;;;;;;6.67;5.50;;;;;;;10.44;100.00;154040.63;5023271;28;20447;-88
2023/03/19 07:43:22;;;;;;;5.37;4.87;;;;;;;10.45;100.00;154043.25;5034629;28;20451;-89
2023/03/19 07:45:49;;;;;;;10.00;5.20;;;;;;;10.49;100.00;154052.28;5037745;28;20466;-88
2023/03/19 07:48:16;;;;;;;5.27;4.77;;;;;;;10.51;100.00;154057.50;5043961;28;20463;-88
2023/03/19 07:50:43;;;;;;;6.30;5.00;;;;;;;10.56;100.00;154071.75;5023005;28;20524;-88
2023/03/19 07:53:10;;;;;;;5.73;5.13;;;;;;;10.52;100.00;154060.06;5045426;28;20455;-88
2023/03/19 07:55:37;;;;;;;5.20;4.70;;;;;;;10.59;100.00;154079.47;5045761;28;20479;-88
2023/03/19 07:58:04;;;;;;;5.40;4.67;;;;;;;10.64;100.00;154091.16;5045827;28;21072;-88
2023/03/19 08:00:32;;;;;;;6.47;5.00;;;;;;;10.67;100.00;154100.19;5034868;28;20459;-88
2023/03/19 08:02:59;;;;;;;7.60;4.40;;;;;;;10.72;100.00;154113.13;5037794;28;20492;-88
2023/03/19 08:05:26;;;;;;;6.07;4.57;;;;;;;10.69;100.00;154104.09;5044366;28;20775;-88
2023/03/19 08:07:52;;;;;;;4.87;4.47;;;;;;;10.73;100.00;154115.75;5040802;28;20471;-89
2023/03/19 08:10:19;;;;;;;5.67;5.07;;;;;;;10.76;100.00;154123.53;5038782;28;20487;-88
2023/03/19 08:12:46;;;;;;;7.10;4.50;;;;;;;10.78;100.00;154128.69;5030634;28;20451;-88
2023/03/19 08:15:13;;;;;;;5.30;4.53;;;;;;;10.82;100.00;154139.06;5038300;28;20462;-88
2023/03/19 08:17:41;;;;;;;6.87;5.23;;;;;;;10.85;100.00;154146.84;5033789;28;20452;-88
2023/03/19 08:20:10;;;;;;;6.80;4.73;;;;;;;10.88;100.00;154153.31;5028561;28;20550;-88
2023/03/19 08:22:38;;;;;;;5.43;4.90;;;;;;;10.91;98.57;154162.34;5026402;28;20452;-88
2023/03/19 08:25:06;;;;;;;4.87;4.37;;;;;;;11.00;100.00;154184.38;5026108;28;20461;-88
2023/03/19 08:27:34;;;;;;;4.83;4.13;;;;;;;10.99;98.33;154181.78;5042247;28;20471;-88
2023/03/19 08:30:01;;;;;;;4.60;4.20;;;;;;;11.05;99.10;154196.03;5042837;28;21029;-88
2023/03/19 08:32:28;;;;;;;6.23;5.63;;;;;;;11.09;97.97;154206.41;5046867;28;20784;-88
2023/03/19 08:34:56;;;;;;;7.13;5.43;;;;;;;11.17;98.88;154227.16;5040447;28;20486;-88
2023/03/19 08:37:23;;;;;;;4.60;4.20;;;;;;;11.16;96.36;154225.84;5030780;28;20443;-88
2023/03/19 08:39:51;;;;;;;4.57;3.70;;;;;;;11.20;98.10;154234.94;5045073;28;20443;-88
2023/03/19 08:42:17;;;;;;;6.27;4.60;;;;;;;11.26;98.43;154250.44;5025169;28;20436;-87
2023/03/19 08:44:44;;;;;;;5.73;4.50;;;;;;;11.29;98.62;154258.22;5039860;28;20881;-88
2023/03/19 08:47:11;;;;;;;5.40;4.43;;;;;;;11.34;98.67;154271.16;5039509;28;20474;-88
2023/03/19 08:49:38;;;;;;;4.87;4.37;;;;;;;11.39;99.15;154284.13;5041586;28;20456;-87
2023/03/19 08:52:07;;;;;;;5.10;4.60;;;;;;;11.39;98.19;154284.13;5040282;28;20826;-88
2023/03/19 08:54:34;;;;;;;5.23;4.33;;;;;;;11.44;98.18;154297.06;5042857;28;20487;-88
2023/03/19 08:57:01;;;;;;;5.50;5.00;;;;;;;11.47;98.15;154304.84;5030110;28;20473;-88
2023/03/19 08:59:28;;;;;;;6.40;5.80;;;;;;;11.50;100.00;154313.94;5044095;28;20576;-88
2023/03/19 09:01:55;;;;;;;5.80;5.20;;;;;;;11.50;98.57;154312.63;5021885;28;20747;-87
2023/03/19 09:04:22;;;;;;;4.87;4.37;;;;;;;11.56;97.34;154328.19;5040344;28;20475;-88
2023/03/19 09:06:50;;;;;;;4.73;4.30;;;;;;;11.66;97.11;154354.09;5020273;28;20534;-86
2023/03/19 09:09:18;;;;;;;5.27;4.77;;;;;;;11.72;96.86;154369.72;5040136;28;20468;-87
2023/03/19 09:11:45;;;;;;;5.33;4.83;;;;;;;11.80;98.80;154390.44;5042218;28;20459;-88
2023/03/19 09:14:12;;;;;;;5.20;4.70;;;;;;;11.87;98.00;154407.28;5034806;28;20459;-88
2023/03/19 09:16:39;;;;;;;5.87;5.20;;;;;;;11.92;96.33;154421.53;5040836;28;20972;-87
2023/03/19 09:19:06;;;;;;;5.80;5.30;;;;;;;12.05;94.67;154455.25;5041447;28;20508;-87
2023/03/19 09:21:33;;;;;;;6.13;5.30;;;;;;;12.12;94.69;154472.13;5046806;28;20854;-88
2023/03/19 09:24:00;;;;;;;6.20;4.80;;;;;;;12.15;95.94;154481.16;5040926;28;20488;-78
2023/03/19 09:26:28;;;;;;;5.93;4.77;;;;;;;12.26;93.27;154508.38;5040023;28;20449;-78
2023/03/19 09:28:55;;;;;;;5.53;4.93;;;;;;;12.32;94.82;154523.94;5019069;28;20467;-78
2023/03/19 09:31:22;;;;;;;6.70;5.07;;;;;;;12.36;94.70;154534.34;5040241;28;20450;-79
2023/03/19 09:33:49;;;;;;;5.67;5.00;;;;;;;12.43;93.88;154552.50;5024907;28;20541;-78
2023/03/19 09:36:16;;;;;;;5.17;4.67;;;;;;;12.50;92.14;154570.63;5041178;28;20500;-78
2023/03/19 09:38:42;;;;;;;6.00;5.40;;;;;;;12.61;93.56;154599.16;5041987;28;20533;-78
2023/03/19 09:41:11;;;;;;;6.00;4.87;;;;;;;12.70;92.89;154621.22;5039855;28;20451;-78
2023/03/19 09:44:00;;;;;;;5.47;4.80;;;;;;;12.87;94.38;154664.03;5043812;28;20474;-78
2023/03/19 09:46:32;;;;;;;5.67;5.03;;;;;;;12.96;90.83;154688.66;5042643;28;21022;-78
2023/03/19 09:49:04;;;;;;;6.73;4.77;;;;;;;13.11;91.97;154727.63;5028736;28;20459;-77
2023/03/19 09:51:39;;;;;;;5.00;4.37;;;;;;;13.18;88.38;154744.50;5042212;28;20444;-77
2023/03/19 09:54:08;;;;;;;5.80;5.30;;;;;;;13.34;89.33;154786.03;5033161;28;20802;-77
2023/03/19 09:56:35;;;;;;;5.43;3.70;;;;;;;13.40;87.76;154802.88;5041277;28;20451;-77
2023/03/19 09:59:03;;;;;;;4.93;4.43;;;;;;;13.42;85.30;154806.81;5040775;28;20530;-78
2023/03/19 10:01:34;;;;;;;6.83;4.30;;;;;;;13.48;86.86;154821.03;5041494;28;20494;-78
2023/03/19 10:04:25;;;;;;;5.10;3.83;;;;;;;13.57;85.93;154845.72;5036781;28;20463;-78
2023/03/19 10:06:55;;;;;;;5.40;4.10;;;;;;;13.65;87.66;154865.19;5038732;28;20471;-78
2023/03/19 10:09:31;;;;;;;5.57;3.90;;;;;;;13.70;81.58;154878.16;5038664;28;20569;-78
2023/03/19 10:12:07;;;;;;;5.50;4.40;;;;;;;13.81;80.63;154906.72;5041064;28;20550;-77
2023/03/19 10:15:07;;;;;;;6.30;4.10;;;;;;;13.84;80.83;154914.50;5035107;28;20505;-78
2023/03/19 10:17:37;;;;;;;4.47;3.60;;;;;;;13.90;80.35;154930.06;5031292;28;20435;-78
2023/03/19 10:20:08;;;;;;;3.97;3.57;;;;;;;13.91;81.10;154933.97;5024261;28;20498;-78
2023/03/19 10:22:38;;;;;;;6.10;3.83;;;;;;;13.90;78.38;154931.38;5040472;28;20440;-78
2023/03/19 10:25:10;;;;;;;4.70;4.17;;;;;;;13.93;78.58;154937.84;5035217;28;21022;-78
2023/03/19 10:27:37;;;;;;;4.20;3.80;;;;;;;14.00;78.76;154956.06;5039471;28;20474;-78
2023/03/19 10:30:14;;;;;;;4.00;3.30;;;;;;;13.99;80.74;154954.75;5044461;28;20455;-78
2023/03/19 10:32:43;;;;;;;4.60;4.17;;;;;;;14.00;80.03;154956.06;5055961;28;20465;-77
2023/03/19 10:35:18;;;;;;;4.47;3.70;;;;;;;14.02;76.19;154961.25;5039024;28;20854;-77
2023/03/19 10:37:45;;;;;;;4.70;3.27;;;;;;;14.04;76.46;154966.41;5042554;28;20439;-77
2023/03/19 10:40:17;;;;;;;3.80;3.43;;;;;;;14.04;78.14;154966.41;5025443;28;20533;-77
2023/03/19 10:42:54;;;;;;;3.70;3.33;;;;;;;14.16;72.32;154996.31;5041926;28;20544;-77
2023/03/19 10:45:27;;;;;;;3.40;3.10;;;;;;;14.18;72.43;155002.78;5042557;28;20459;-77
2023/03/19 10:47:55;;;;;;;3.77;3.07;;;;;;;14.16;73.20;154997.59;5039118;28;20477;-77
2023/03/19 10:50:27;;;;;;;3.80;3.47;;;;;;;14.23;79.64;155014.47;5033414;28;20449;-77
2023/03/19 10:53:03;;;;;;;3.43;2.60;;;;;;;14.16;71.71;154996.31;5017359;28;20448;-77
2023/03/19 10:55:31;;;;;;;2.80;2.50;;;;;;;14.25;74.38;155020.94;5025006;28;20457;-77
2023/03/19 10:58:03;;;;;;;3.47;2.93;;;;;;;14.28;69.08;155028.75;5036993;28;20505;-77
2023/03/19 11:00:34;;;;;;;3.97;2.23;;;;;;;14.35;68.40;155045.72;5035358;28;20456;-77
2023/03/19 11:03:03;;;;;;;2.67;2.13;;;;;;;14.38;68.98;155053.47;5019983;28;20452;-77
2023/03/19 11:05:31;;;;;;;2.60;2.30;;;;;;;14.39;71.68;155057.38;5036146;28;20808;-77
2023/03/19 11:08:00;;;;;;;2.93;2.47;;;;;;;14.42;66.69;155065.19;5035734;28;20500;-77
2023/03/19 11:10:29;;;;;;;3.30;3.00;;;;;;;14.54;67.37;155096.31;5025300;28;20483;-77
2023/03/19 11:12:57;;;;;;;4.80;2.80;;;;;;;14.59;73.38;155108.00;5036932;28;20938;-77
2023/03/19 11:15:28;;;;;;;3.47;2.60;;;;;;;14.59;76.22;155108.00;5038316;28;20844;-77
2023/03/19 11:18:01;;;;;;;2.50;2.30;;;;;;;14.48;68.77;155079.47;5039889;28;20532;-76
2023/03/19 11:20:31;;;;;;;4.23;3.17;;;;;;;14.61;67.33;155113.25;5023349;28;20458;-76
2023/03/19 11:23:01;;;;;;;4.63;2.50;;;;;;;14.76;65.74;155152.19;5027522;28;20434;-79
2023/03/19 11:25:32;;;;;;;3.07;2.63;;;;;;;14.80;68.33;155162.56;5019033;28;20523;-78
2023/03/19 11:28:00;;;;;;;4.90;2.90;;;;;;;14.84;73.69;155171.66;5036423;28;20461;-78
2023/03/19 11:30:34;;;;;;;3.00;2.70;;;;;;;14.78;66.28;155157.38;5042516;28;20897;-78
2023/03/19 11:33:22;;;;;;;3.10;2.70;;;;;;;14.94;68.40;155197.66;5036319;28;20456;-78
2023/03/19 11:35:51;;;;;;;3.10;2.50;;;;;;;15.02;63.41;155218.44;5025816;28;20506;-78